Nissan Maru — JG5485 — position and weather

sailwx.info

Track history (hours):
 
Tides and Currents Weather Stations Pressure Air Temp Water Temp Dewpoint Dewpoint Depression Visibility Wind Speed Wind Dir Waves Ship Positions

Nissan Maru

Last reported at 2014-Sep-20 10:26 UTC. Time now 2014-Sep-21 06:02 UTC.
Position N 35°06' E 139°41'.

Length 108 m; draft 5.3 m.

Type: Cargo ship. MMSI: 431400593.

Date/timePositionNaut miles runAvg speedWind from/ knotsBaromVisibWave heightAir tempDewpointWater temp
2014-Sep-20 10:26N 35°06' E 139°41'1112.6
2014-Sep-20 09:33N 35°17' E 139°45'1212.0
2014-Sep-20 08:33N 35°29' E 139°45'1 0.7
2014-Sep-20 07:28N 35°29' E 139°44'0 0.0
2014-Sep-20 06:31N 35°29' E 139°44'0 0.0
2014-Sep-20 05:31N 35°29' E 139°44'0 0.0
2014-Sep-20 04:28N 35°29' E 139°44'0 0.0
2014-Sep-20 03:28N 35°29' E 139°44'0 0.0
2014-Sep-20 02:31N 35°29' E 139°44'0 0.0
2014-Sep-20 01:31N 35°29' E 139°44'0 0.0
2014-Sep-20 00:31N 35°29' E 139°44'0 0.0
2014-Sep-19 23:31N 35°29' E 139°44'0 0.0
2014-Sep-19 22:28N 35°29' E 139°44'0 0.0
2014-Sep-19 21:28N 35°29' E 139°44'0 0.0
2014-Sep-19 20:31N 35°29' E 139°44'0 0.0
2014-Sep-19 19:31N 35°29' E 139°44'0 0.0
2014-Sep-19 18:31N 35°29' E 139°44'0 0.1
2014-Sep-19 17:34N 35°29' E 139°44'6 5.6
2014-Sep-19 16:33N 35°24' E 139°46'1110.8
2014-Sep-19 15:33N 35°13' E 139°47'  
2014-Sep-16 17:28N 34°59' E 139°30'1213.2
2014-Sep-16 16:33N 35°07' E 139°42'1211.7
2014-Sep-16 15:33N 35°18' E 139°44'1110.8
2014-Sep-16 14:33N 35°29' E 139°44'0 0.0
2014-Sep-16 13:32N 35°29' E 139°44'0 0.0
2014-Sep-16 12:32N 35°29' E 139°44'0 0.0
2014-Sep-16 11:32N 35°29' E 139°44'0 0.0
2014-Sep-16 10:32N 35°29' E 139°44'0 0.0
2014-Sep-16 09:32N 35°29' E 139°44'0 0.0
2014-Sep-16 08:32N 35°29' E 139°44'0 0.0
2014-Sep-16 07:32N 35°29' E 139°44'0 0.0
2014-Sep-16 06:32N 35°29' E 139°44'0 0.0
2014-Sep-16 05:32N 35°29' E 139°44'0 0.0
2014-Sep-16 04:32N 35°29' E 139°44'0 0.0
2014-Sep-16 03:32N 35°29' E 139°44'0 0.1
2014-Sep-16 02:33N 35°29' E 139°44'4 3.8
2014-Sep-16 01:33N 35°28' E 139°49'0 0.0
2014-Sep-16 00:33N 35°28' E 139°49'0 0.0
2014-Sep-15 23:33N 35°28' E 139°49'0 0.0
2014-Sep-15 22:33N 35°28' E 139°49'0 0.0
2014-Sep-15 21:33N 35°28' E 139°49'2 1.7
2014-Sep-15 20:33N 35°27' E 139°48'1111.2
2014-Sep-15 19:33N 35°16' E 139°46'1211.6
2014-Sep-15 18:33N 35°04' E 139°43'  
2014-Sep-13 03:33N 35°01' E 139°32'1413.6
2014-Sep-13 02:33N 35°10' E 139°44'1212.0
2014-Sep-13 01:34N 35°22' E 139°42'1312.8
2014-Sep-13 00:33N 35°31' E 139°53'1211.7
2014-Sep-12 23:33N 35°35' E 140°07'0 0.3
2014-Sep-12 22:28N 35°35' E 140°07'0 0.0
2014-Sep-12 21:28N 35°35' E 140°07'0 0.0
2014-Sep-12 20:31N 35°35' E 140°07'0 0.0
2014-Sep-12 19:31N 35°35' E 140°07'0 0.0
2014-Sep-12 18:31N 35°35' E 140°07'0 0.0
2014-Sep-12 17:28N 35°35' E 140°07'0 0.0
2014-Sep-12 16:31N 35°35' E 140°07'0 0.0
2014-Sep-12 15:31N 35°35' E 140°07'0 0.0
2014-Sep-12 14:25N 35°35' E 140°07'0 0.0
2014-Sep-12 13:31N 35°35' E 140°07'0 0.0
2014-Sep-12 12:31N 35°35' E 140°07'0 0.0
2014-Sep-12 11:31N 35°35' E 140°07'0 0.0
2014-Sep-12 10:28N 35°35' E 140°07'0 0.0
2014-Sep-12 09:31N 35°35' E 140°07'0 0.0
2014-Sep-12 08:31N 35°35' E 140°07'0 0.0
2014-Sep-12 07:31N 35°35' E 140°07'0 0.0
2014-Sep-12 06:31N 35°35' E 140°07'0 0.0
2014-Sep-12 05:28N 35°35' E 140°07'0 0.0
2014-Sep-12 04:31N 35°35' E 140°07'0 0.0
2014-Sep-12 03:31N 35°35' E 140°07'0 0.0
2014-Sep-12 02:28N 35°35' E 140°07'0 0.0
2014-Sep-12 01:31N 35°35' E 140°07'0 0.0
2014-Sep-12 00:22N 35°35' E 140°07'0 0.0
2014-Sep-11 23:28N 35°35' E 140°07'0 0.0
2014-Sep-11 22:33N 35°35' E 140°07'5 4.5
2014-Sep-11 21:33N 35°33' E 140°01'0 0.0
2014-Sep-11 20:30N 35°33' E 140°01'0 0.1
2014-Sep-11 19:33N 35°33' E 140°01'0 0.0
2014-Sep-11 18:33N 35°33' E 140°01'0 0.0
2014-Sep-11 17:33N 35°33' E 140°01'0 0.0
2014-Sep-11 16:30N 35°33' E 140°01'0 0.1
2014-Sep-11 15:33N 35°33' E 140°01'8 7.9
2014-Sep-11 14:33N 35°31' E 139°52'7 6.7
2014-Sep-11 13:33N 35°29' E 139°44'0 0.0
2014-Sep-11 12:30N 35°29' E 139°44'0 0.0
2014-Sep-11 11:30N 35°29' E 139°44'0 0.0
2014-Sep-11 10:33N 35°29' E 139°44'0 0.0
2014-Sep-11 09:30N 35°29' E 139°44'0 0.0
2014-Sep-11 08:30N 35°29' E 139°44'0 0.0
2014-Sep-11 07:33N 35°29' E 139°44'0 0.0
2014-Sep-11 06:33N 35°29' E 139°44'0 0.0
2014-Sep-11 05:30N 35°29' E 139°44'0 0.0
2014-Sep-11 04:27N 35°29' E 139°44'0 0.0
2014-Sep-11 03:33N 35°29' E 139°44'0 0.0
2014-Sep-11 02:12N 35°29' E 139°44'0 0.0
2014-Sep-11 01:33N 35°29' E 139°44'0 0.0
2014-Sep-11 00:24N 35°29' E 139°44'0 0.0
2014-Sep-10 23:30N 35°29' E 139°44'0 0.0
2014-Sep-10 22:33N 35°29' E 139°44'0 0.0
2014-Sep-10 21:33N 35°29' E 139°44'0 0.0
2014-Sep-10 20:33N 35°29' E 139°44'0 0.0
2014-Sep-10 19:33N 35°29' E 139°44'0 0.2
2014-Sep-10 18:31N 35°29' E 139°44'0 0.0
2014-Sep-10 17:31N 35°29' E 139°44'0 0.0
2014-Sep-10 16:31N 35°29' E 139°44'0 0.0
2014-Sep-10 15:31N 35°29' E 139°44'0 0.0
2014-Sep-10 14:31N 35°29' E 139°44'0 0.0
2014-Sep-10 13:31N 35°29' E 139°44'0 0.0
2014-Sep-10 12:31N 35°29' E 139°44'0 0.0
2014-Sep-10 11:31N 35°29' E 139°44'0 0.0
2014-Sep-10 10:31N 35°29' E 139°44'  
Track history (hours):
 
Tides and Currents Weather Stations Pressure Air Temp Water Temp Dewpoint Dewpoint Depression Visibility Wind Speed Wind Dir Waves Ship Positions

Nissan Maru

Last reported at 2014-Sep-20 10:26 UTC. Time now 2014-Sep-21 06:02 UTC.
Position N 35°06' E 139°41'.

Length 108 m; draft 5.3 m.

Type: Cargo ship. MMSI: 431400593.

Date/timePositionNaut miles runAvg speedWind from/ knotsBaromVisibWave heightAir tempDewpointWater temp
2014-Sep-20 10:26N 35°06' E 139°41'1112.6
2014-Sep-20 09:33N 35°17' E 139°45'1212.0
2014-Sep-20 08:33N 35°29' E 139°45'1 0.7
2014-Sep-20 07:28N 35°29' E 139°44'0 0.0
2014-Sep-20 06:31N 35°29' E 139°44'0 0.0
2014-Sep-20 05:31N 35°29' E 139°44'0 0.0
2014-Sep-20 04:28N 35°29' E 139°44'0 0.0
2014-Sep-20 03:28N 35°29' E 139°44'0 0.0
2014-Sep-20 02:31N 35°29' E 139°44'0 0.0
2014-Sep-20 01:31N 35°29' E 139°44'0 0.0
2014-Sep-20 00:31N 35°29' E 139°44'0 0.0
2014-Sep-19 23:31N 35°29' E 139°44'0 0.0
2014-Sep-19 22:28N 35°29' E 139°44'0 0.0
2014-Sep-19 21:28N 35°29' E 139°44'0 0.0
2014-Sep-19 20:31N 35°29' E 139°44'0 0.0
2014-Sep-19 19:31N 35°29' E 139°44'0 0.0
2014-Sep-19 18:31N 35°29' E 139°44'0 0.1
2014-Sep-19 17:34N 35°29' E 139°44'6 5.6
2014-Sep-19 16:33N 35°24' E 139°46'1110.8
2014-Sep-19 15:33N 35°13' E 139°47'  
2014-Sep-16 17:28N 34°59' E 139°30'1213.2
2014-Sep-16 16:33N 35°07' E 139°42'1211.7
2014-Sep-16 15:33N 35°18' E 139°44'1110.8
2014-Sep-16 14:33N 35°29' E 139°44'0 0.0
2014-Sep-16 13:32N 35°29' E 139°44'0 0.0
2014-Sep-16 12:32N 35°29' E 139°44'0 0.0
2014-Sep-16 11:32N 35°29' E 139°44'0 0.0
2014-Sep-16 10:32N 35°29' E 139°44'0 0.0
2014-Sep-16 09:32N 35°29' E 139°44'0 0.0
2014-Sep-16 08:32N 35°29' E 139°44'0 0.0
2014-Sep-16 07:32N 35°29' E 139°44'0 0.0
2014-Sep-16 06:32N 35°29' E 139°44'0 0.0
2014-Sep-16 05:32N 35°29' E 139°44'0 0.0
2014-Sep-16 04:32N 35°29' E 139°44'0 0.0
2014-Sep-16 03:32N 35°29' E 139°44'0 0.1
2014-Sep-16 02:33N 35°29' E 139°44'4 3.8
2014-Sep-16 01:33N 35°28' E 139°49'0 0.0
2014-Sep-16 00:33N 35°28' E 139°49'0 0.0
2014-Sep-15 23:33N 35°28' E 139°49'0 0.0
2014-Sep-15 22:33N 35°28' E 139°49'0 0.0
2014-Sep-15 21:33N 35°28' E 139°49'2 1.7
2014-Sep-15 20:33N 35°27' E 139°48'1111.2
2014-Sep-15 19:33N 35°16' E 139°46'1211.6
2014-Sep-15 18:33N 35°04' E 139°43'  
2014-Sep-13 03:33N 35°01' E 139°32'1413.6
2014-Sep-13 02:33N 35°10' E 139°44'1212.0
2014-Sep-13 01:34N 35°22' E 139°42'1312.8
2014-Sep-13 00:33N 35°31' E 139°53'1211.7
2014-Sep-12 23:33N 35°35' E 140°07'0 0.3
2014-Sep-12 22:28N 35°35' E 140°07'0 0.0
2014-Sep-12 21:28N 35°35' E 140°07'0 0.0
2014-Sep-12 20:31N 35°35' E 140°07'0 0.0
2014-Sep-12 19:31N 35°35' E 140°07'0 0.0
2014-Sep-12 18:31N 35°35' E 140°07'0 0.0
2014-Sep-12 17:28N 35°35' E 140°07'0 0.0
2014-Sep-12 16:31N 35°35' E 140°07'0 0.0
2014-Sep-12 15:31N 35°35' E 140°07'0 0.0
2014-Sep-12 14:25N 35°35' E 140°07'0 0.0
2014-Sep-12 13:31N 35°35' E 140°07'0 0.0
2014-Sep-12 12:31N 35°35' E 140°07'0 0.0
2014-Sep-12 11:31N 35°35' E 140°07'0 0.0
2014-Sep-12 10:28N 35°35' E 140°07'0 0.0
2014-Sep-12 09:31N 35°35' E 140°07'0 0.0
2014-Sep-12 08:31N 35°35' E 140°07'0 0.0
2014-Sep-12 07:31N 35°35' E 140°07'0 0.0
2014-Sep-12 06:31N 35°35' E 140°07'0 0.0
2014-Sep-12 05:28N 35°35' E 140°07'0 0.0
2014-Sep-12 04:31N 35°35' E 140°07'0 0.0
2014-Sep-12 03:31N 35°35' E 140°07'0 0.0
2014-Sep-12 02:28N 35°35' E 140°07'0 0.0
2014-Sep-12 01:31N 35°35' E 140°07'0 0.0
2014-Sep-12 00:22N 35°35' E 140°07'0 0.0
2014-Sep-11 23:28N 35°35' E 140°07'0 0.0
2014-Sep-11 22:33N 35°35' E 140°07'5 4.5
2014-Sep-11 21:33N 35°33' E 140°01'0 0.0
2014-Sep-11 20:30N 35°33' E 140°01'0 0.1
2014-Sep-11 19:33N 35°33' E 140°01'0 0.0
2014-Sep-11 18:33N 35°33' E 140°01'0 0.0
2014-Sep-11 17:33N 35°33' E 140°01'0 0.0
2014-Sep-11 16:30N 35°33' E 140°01'0 0.1
2014-Sep-11 15:33N 35°33' E 140°01'8 7.9
2014-Sep-11 14:33N 35°31' E 139°52'7 6.7
2014-Sep-11 13:33N 35°29' E 139°44'0 0.0
2014-Sep-11 12:30N 35°29' E 139°44'0 0.0
2014-Sep-11 11:30N 35°29' E 139°44'0 0.0
2014-Sep-11 10:33N 35°29' E 139°44'0 0.0
2014-Sep-11 09:30N 35°29' E 139°44'0 0.0
2014-Sep-11 08:30N 35°29' E 139°44'0 0.0
2014-Sep-11 07:33N 35°29' E 139°44'0 0.0
2014-Sep-11 06:33N 35°29' E 139°44'0 0.0
2014-Sep-11 05:30N 35°29' E 139°44'0 0.0
2014-Sep-11 04:27N 35°29' E 139°44'0 0.0
2014-Sep-11 03:33N 35°29' E 139°44'0 0.0
2014-Sep-11 02:12N 35°29' E 139°44'0 0.0
2014-Sep-11 01:33N 35°29' E 139°44'0 0.0
2014-Sep-11 00:24N 35°29' E 139°44'0 0.0
2014-Sep-10 23:30N 35°29' E 139°44'0 0.0
2014-Sep-10 22:33N 35°29' E 139°44'0 0.0
2014-Sep-10 21:33N 35°29' E 139°44'0 0.0
2014-Sep-10 20:33N 35°29' E 139°44'0 0.0
2014-Sep-10 19:33N 35°29' E 139°44'0 0.2
2014-Sep-10 18:31N 35°29' E 139°44'0 0.0
2014-Sep-10 17:31N 35°29' E 139°44'0 0.0
2014-Sep-10 16:31N 35°29' E 139°44'0 0.0
2014-Sep-10 15:31N 35°29' E 139°44'0 0.0
2014-Sep-10 14:31N 35°29' E 139°44'0 0.0
2014-Sep-10 13:31N 35°29' E 139°44'0 0.0
2014-Sep-10 12:31N 35°29' E 139°44'0 0.0
2014-Sep-10 11:31N 35°29' E 139°44'0 0.0
2014-Sep-10 10:31N 35°29' E 139°44'  

Dump ship's entire track history